sensor_id;sensor_type;location;lat;lon;timestamp;P1;durP1;ratioP1;P2;durP2;ratioP2
25667;SDS011;18003;-33.830;151.202;2022-09-12T00:01:50;1.90;;;1.22;;
25667;SDS011;18003;-33.830;151.202;2022-09-12T00:04:20;2.87;;;1.30;;
25667;SDS011;18003;-33.830;151.202;2022-09-12T00:06:50;1.60;;;1.30;;
25667;SDS011;18003;-33.830;151.202;2022-09-12T00:09:20;1.30;;;1.20;;
25667;SDS011;18003;-33.830;151.202;2022-09-12T00:11:50;2.27;;;1.10;;
25667;SDS011;18003;-33.830;151.202;2022-09-12T00:14:20;1.87;;;1.20;;
25667;SDS011;18003;-33.830;151.202;2022-09-12T00:16:50;1.30;;;1.20;;
25667;SDS011;18003;-33.830;151.202;2022-09-12T00:19:21;4.10;;;1.37;;
25667;SDS011;18003;-33.830;151.202;2022-09-12T00:21:51;2.37;;;1.32;;
25667;SDS011;18003;-33.830;151.202;2022-09-12T00:24:22;4.55;;;1.20;;
25667;SDS011;18003;-33.830;151.202;2022-09-12T00:26:52;1.72;;;1.30;;
25667;SDS011;18003;-33.830;151.202;2022-09-12T00:29:22;2.67;;;1.45;;
25667;SDS011;18003;-33.830;151.202;2022-09-12T00:31:52;1.67;;;1.30;;
25667;SDS011;18003;-33.830;151.202;2022-09-12T00:34:22;5.22;;;1.40;;
25667;SDS011;18003;-33.830;151.202;2022-09-12T00:36:52;2.60;;;1.30;;
25667;SDS011;18003;-33.830;151.202;2022-09-12T00:39:22;2.35;;;1.37;;
25667;SDS011;18003;-33.830;151.202;2022-09-12T00:41:52;4.22;;;1.30;;
25667;SDS011;18003;-33.830;151.202;2022-09-12T00:49:33;1.77;;;1.22;;
25667;SDS011;18003;-33.830;151.202;2022-09-12T00:52:11;4.87;;;1.32;;
25667;SDS011;18003;-33.830;151.202;2022-09-12T00:54:46;2.00;;;1.30;;
25667;SDS011;18003;-33.830;151.202;2022-09-12T00:57:16;1.72;;;1.25;;
25667;SDS011;18003;-33.830;151.202;2022-09-12T00:59:52;1.60;;;1.50;;
25667;SDS011;18003;-33.830;151.202;2022-09-12T01:02:19;4.22;;;1.30;;
25667;SDS011;18003;-33.830;151.202;2022-09-12T01:04:50;1.30;;;1.30;;
25667;SDS011;18003;-33.830;151.202;2022-09-12T01:07:20;3.45;;;1.60;;
25667;SDS011;18003;-33.830;151.202;2022-09-12T01:09:50;1.98;;;1.50;;
25667;SDS011;18003;-33.830;151.202;2022-09-12T01:12:20;2.90;;;1.57;;
25667;SDS011;18003;-33.830;151.202;2022-09-12T01:14:50;3.72;;;1.67;;
25667;SDS011;18003;-33.830;151.202;2022-09-12T01:17:20;2.60;;;1.50;;
25667;SDS011;18003;-33.830;151.202;2022-09-12T01:25:14;2.33;;;1.57;;
25667;SDS011;18003;-33.830;151.202;2022-09-12T01:30:27;3.08;;;1.50;;
25667;SDS011;18003;-33.830;151.202;2022-09-12T01:33:18;2.22;;;1.50;;
25667;SDS011;18003;-33.830;151.202;2022-09-12T01:38:33;2.58;;;1.32;;
25667;SDS011;18003;-33.830;151.202;2022-09-12T01:41:09;1.50;;;1.40;;
25667;SDS011;18003;-33.830;151.202;2022-09-12T01:49:06;1.52;;;1.40;;
25667;SDS011;18003;-33.830;151.202;2022-09-12T01:51:45;4.08;;;1.50;;
25667;SDS011;18003;-33.830;151.202;2022-09-12T01:54:23;1.77;;;1.40;;
25667;SDS011;18003;-33.830;151.202;2022-09-12T01:56:59;2.65;;;1.40;;
25667;SDS011;18003;-33.830;151.202;2022-09-12T01:59:32;5.72;;;1.47;;
25667;SDS011;18003;-33.830;151.202;2022-09-12T02:04:35;2.50;;;1.40;;
25667;SDS011;18003;-33.830;151.202;2022-09-12T02:07:19;2.45;;;1.25;;
25667;SDS011;18003;-33.830;151.202;2022-09-12T02:09:56;1.62;;;1.00;;
25667;SDS011;18003;-33.830;151.202;2022-09-12T02:12:31;1.25;;;1.15;;
25667;SDS011;18003;-33.830;151.202;2022-09-12T02:15:06;1.42;;;1.00;;
25667;SDS011;18003;-33.830;151.202;2022-09-12T02:20:10;2.75;;;1.20;;
25667;SDS011;18003;-33.830;151.202;2022-09-12T02:22:43;2.67;;;1.10;;
25667;SDS011;18003;-33.830;151.202;2022-09-12T02:25:15;2.45;;;1.27;;
25667;SDS011;18003;-33.830;151.202;2022-09-12T02:30:28;1.72;;;1.20;;
25667;SDS011;18003;-33.830;151.202;2022-09-12T02:33:06;2.00;;;1.47;;
25667;SDS011;18003;-33.830;151.202;2022-09-12T02:35:50;2.30;;;1.32;;
25667;SDS011;18003;-33.830;151.202;2022-09-12T02:38:37;1.40;;;1.30;;
25667;SDS011;18003;-33.830;151.202;2022-09-12T02:41:16;2.25;;;1.20;;
25667;SDS011;18003;-33.830;151.202;2022-09-12T02:43:47;1.32;;;1.20;;
25667;SDS011;18003;-33.830;151.202;2022-09-12T02:46:24;2.60;;;1.50;;
25667;SDS011;18003;-33.830;151.202;2022-09-12T02:48:59;1.37;;;1.27;;
25667;SDS011;18003;-33.830;151.202;2022-09-12T02:51:29;1.60;;;1.20;;
25667;SDS011;18003;-33.830;151.202;2022-09-12T02:53:59;2.17;;;1.40;;
25667;SDS011;18003;-33.830;151.202;2022-09-12T02:56:31;1.50;;;1.40;;
25667;SDS011;18003;-33.830;151.202;2022-09-12T02:59:07;2.22;;;1.45;;
25667;SDS011;18003;-33.830;151.202;2022-09-12T03:10:30;1.50;;;1.40;;
25667;SDS011;18003;-33.830;151.202;2022-09-12T03:26:48;1.50;;;1.35;;
25667;SDS011;18003;-33.830;151.202;2022-09-12T03:29:21;1.40;;;1.27;;
25667;SDS011;18003;-33.830;151.202;2022-09-12T03:31:53;1.37;;;1.27;;
25667;SDS011;18003;-33.830;151.202;2022-09-12T03:34:24;1.35;;;1.25;;
25667;SDS011;18003;-33.830;151.202;2022-09-12T03:36:54;1.25;;;1.25;;
25667;SDS011;18003;-33.830;151.202;2022-09-12T03:39:25;1.90;;;1.40;;
25667;SDS011;18003;-33.830;151.202;2022-09-12T03:41:55;1.53;;;1.40;;
25667;SDS011;18003;-33.830;151.202;2022-09-12T03:44:25;1.67;;;1.30;;
25667;SDS011;18003;-33.830;151.202;2022-09-12T03:46:55;3.90;;;1.20;;
25667;SDS011;18003;-33.830;151.202;2022-09-12T03:49:25;1.72;;;1.42;;
25667;SDS011;18003;-33.830;151.202;2022-09-12T03:51:55;2.35;;;1.27;;
25667;SDS011;18003;-33.830;151.202;2022-09-12T03:54:25;2.05;;;1.37;;
25667;SDS011;18003;-33.830;151.202;2022-09-12T03:56:55;1.95;;;1.20;;
25667;SDS011;18003;-33.830;151.202;2022-09-12T03:59:25;2.47;;;1.35;;
25667;SDS011;18003;-33.830;151.202;2022-09-12T04:01:55;1.77;;;1.45;;
25667;SDS011;18003;-33.830;151.202;2022-09-12T04:04:25;2.30;;;1.30;;
25667;SDS011;18003;-33.830;151.202;2022-09-12T04:06:55;2.45;;;1.50;;
25667;SDS011;18003;-33.830;151.202;2022-09-12T04:09:25;1.32;;;1.20;;
25667;SDS011;18003;-33.830;151.202;2022-09-12T04:11:55;2.05;;;1.30;;
25667;SDS011;18003;-33.830;151.202;2022-09-12T04:14:25;1.32;;;1.22;;
25667;SDS011;18003;-33.830;151.202;2022-09-12T04:16:55;2.92;;;1.30;;
25667;SDS011;18003;-33.830;151.202;2022-09-12T04:19:25;1.40;;;1.30;;
25667;SDS011;18003;-33.830;151.202;2022-09-12T04:21:55;1.80;;;1.52;;
25667;SDS011;18003;-33.830;151.202;2022-09-12T04:24:25;4.37;;;1.40;;
25667;SDS011;18003;-33.830;151.202;2022-09-12T04:26:55;1.40;;;1.30;;
25667;SDS011;18003;-33.830;151.202;2022-09-12T04:29:25;2.02;;;1.40;;
25667;SDS011;18003;-33.830;151.202;2022-09-12T04:31:55;2.55;;;1.20;;
25667;SDS011;18003;-33.830;151.202;2022-09-12T04:34:25;1.35;;;1.27;;
25667;SDS011;18003;-33.830;151.202;2022-09-12T04:36:56;1.35;;;1.20;;
25667;SDS011;18003;-33.830;151.202;2022-09-12T04:39:26;2.55;;;1.10;;
25667;SDS011;18003;-33.830;151.202;2022-09-12T04:41:57;2.72;;;1.72;;
25667;SDS011;18003;-33.830;151.202;2022-09-12T04:44:27;1.17;;;1.10;;
25667;SDS011;18003;-33.830;151.202;2022-09-12T04:46:57;1.30;;;1.20;;
25667;SDS011;18003;-33.830;151.202;2022-09-12T04:49:27;2.02;;;1.30;;
25667;SDS011;18003;-33.830;151.202;2022-09-12T04:51:57;1.82;;;1.30;;
25667;SDS011;18003;-33.830;151.202;2022-09-12T04:54:27;4.20;;;1.20;;
25667;SDS011;18003;-33.830;151.202;2022-09-12T04:56:56;2.20;;;1.30;;
25667;SDS011;18003;-33.830;151.202;2022-09-12T04:59:26;1.27;;;1.17;;
25667;SDS011;18003;-33.830;151.202;2022-09-12T05:01:56;1.62;;;1.40;;
25667;SDS011;18003;-33.830;151.202;2022-09-12T05:04:26;1.98;;;1.30;;
25667;SDS011;18003;-33.830;151.202;2022-09-12T05:06:57;2.35;;;1.57;;
25667;SDS011;18003;-33.830;151.202;2022-09-12T05:09:27;2.25;;;1.70;;
25667;SDS011;18003;-33.830;151.202;2022-09-12T05:11:57;1.52;;;1.30;;
25667;SDS011;18003;-33.830;151.202;2022-09-12T05:14:27;1.70;;;1.60;;
25667;SDS011;18003;-33.830;151.202;2022-09-12T05:16:58;2.25;;;1.50;;
25667;SDS011;18003;-33.830;151.202;2022-09-12T05:19:28;2.12;;;1.22;;
25667;SDS011;18003;-33.830;151.202;2022-09-12T05:21:59;3.52;;;1.20;;
25667;SDS011;18003;-33.830;151.202;2022-09-12T05:24:30;2.95;;;1.30;;
25667;SDS011;18003;-33.830;151.202;2022-09-12T05:27:00;1.42;;;1.20;;
25667;SDS011;18003;-33.830;151.202;2022-09-12T05:29:31;2.65;;;1.32;;
25667;SDS011;18003;-33.830;151.202;2022-09-12T05:32:01;2.30;;;1.30;;
25667;SDS011;18003;-33.830;151.202;2022-09-12T05:34:31;2.60;;;1.40;;
25667;SDS011;18003;-33.830;151.202;2022-09-12T05:37:01;2.37;;;1.30;;
25667;SDS011;18003;-33.830;151.202;2022-09-12T05:39:31;2.10;;;1.50;;
25667;SDS011;18003;-33.830;151.202;2022-09-12T05:42:00;1.90;;;1.45;;
25667;SDS011;18003;-33.830;151.202;2022-09-12T05:44:31;3.45;;;1.47;;
25667;SDS011;18003;-33.830;151.202;2022-09-12T05:47:01;1.83;;;1.53;;
25667;SDS011;18003;-33.830;151.202;2022-09-12T05:49:31;3.50;;;1.47;;
25667;SDS011;18003;-33.830;151.202;2022-09-12T05:52:02;1.77;;;1.30;;
25667;SDS011;18003;-33.830;151.202;2022-09-12T05:54:32;1.62;;;1.40;;
25667;SDS011;18003;-33.830;151.202;2022-09-12T05:57:02;1.52;;;1.42;;
25667;SDS011;18003;-33.830;151.202;2022-09-12T05:59:32;2.27;;;1.30;;
25667;SDS011;18003;-33.830;151.202;2022-09-12T06:02:03;1.62;;;1.35;;
25667;SDS011;18003;-33.830;151.202;2022-09-12T06:04:33;2.00;;;1.50;;
25667;SDS011;18003;-33.830;151.202;2022-09-12T06:07:03;2.77;;;1.50;;
25667;SDS011;18003;-33.830;151.202;2022-09-12T06:09:33;3.80;;;1.65;;
25667;SDS011;18003;-33.830;151.202;2022-09-12T06:12:03;3.12;;;1.62;;
25667;SDS011;18003;-33.830;151.202;2022-09-12T06:14:34;2.05;;;1.90;;
25667;SDS011;18003;-33.830;151.202;2022-09-12T06:17:04;1.87;;;1.77;;
25667;SDS011;18003;-33.830;151.202;2022-09-12T06:19:34;2.12;;;1.62;;
25667;SDS011;18003;-33.830;151.202;2022-09-12T06:22:04;2.00;;;1.80;;
25667;SDS011;18003;-33.830;151.202;2022-09-12T06:24:34;1.85;;;1.75;;
25667;SDS011;18003;-33.830;151.202;2022-09-12T06:27:04;1.92;;;1.80;;
25667;SDS011;18003;-33.830;151.202;2022-09-12T06:29:34;7.58;;;2.12;;
25667;SDS011;18003;-33.830;151.202;2022-09-12T06:32:04;2.58;;;1.75;;
25667;SDS011;18003;-33.830;151.202;2022-09-12T06:34:34;1.55;;;1.45;;
25667;SDS011;18003;-33.830;151.202;2022-09-12T06:37:04;1.72;;;1.60;;
25667;SDS011;18003;-33.830;151.202;2022-09-12T06:39:34;3.02;;;1.45;;
25667;SDS011;18003;-33.830;151.202;2022-09-12T06:42:04;2.80;;;1.52;;
25667;SDS011;18003;-33.830;151.202;2022-09-12T06:44:34;2.30;;;1.40;;
25667;SDS011;18003;-33.830;151.202;2022-09-12T06:47:05;1.98;;;1.47;;
25667;SDS011;18003;-33.830;151.202;2022-09-12T06:49:35;2.62;;;1.70;;
25667;SDS011;18003;-33.830;151.202;2022-09-12T06:52:05;2.12;;;1.70;;
25667;SDS011;18003;-33.830;151.202;2022-09-12T06:54:35;2.50;;;1.85;;
25667;SDS011;18003;-33.830;151.202;2022-09-12T06:57:05;1.75;;;1.65;;
25667;SDS011;18003;-33.830;151.202;2022-09-12T06:59:35;1.80;;;1.70;;
25667;SDS011;18003;-33.830;151.202;2022-09-12T07:02:05;1.57;;;1.50;;
25667;SDS011;18003;-33.830;151.202;2022-09-12T07:04:35;1.82;;;1.72;;
25667;SDS011;18003;-33.830;151.202;2022-09-12T07:07:05;2.40;;;1.62;;
25667;SDS011;18003;-33.830;151.202;2022-09-12T07:09:35;1.62;;;1.52;;
25667;SDS011;18003;-33.830;151.202;2022-09-12T07:12:05;1.72;;;1.60;;
25667;SDS011;18003;-33.830;151.202;2022-09-12T07:14:36;1.65;;;1.40;;
25667;SDS011;18003;-33.830;151.202;2022-09-12T07:17:06;5.35;;;1.55;;
25667;SDS011;18003;-33.830;151.202;2022-09-12T07:19:35;3.52;;;1.70;;
25667;SDS011;18003;-33.830;151.202;2022-09-12T07:22:05;1.17;;;1.10;;
25667;SDS011;18003;-33.830;151.202;2022-09-12T07:24:36;1.20;;;1.10;;
25667;SDS011;18003;-33.830;151.202;2022-09-12T07:27:07;1.27;;;1.17;;
25667;SDS011;18003;-33.830;151.202;2022-09-12T07:29:37;4.08;;;1.27;;
25667;SDS011;18003;-33.830;151.202;2022-09-12T07:32:07;2.70;;;1.42;;
25667;SDS011;18003;-33.830;151.202;2022-09-12T07:34:37;6.30;;;1.60;;
25667;SDS011;18003;-33.830;151.202;2022-09-12T07:37:07;10.13;;;1.50;;
25667;SDS011;18003;-33.830;151.202;2022-09-12T07:39:37;4.37;;;1.60;;
25667;SDS011;18003;-33.830;151.202;2022-09-12T07:42:07;7.45;;;2.30;;
25667;SDS011;18003;-33.830;151.202;2022-09-12T07:44:38;7.80;;;1.37;;
25667;SDS011;18003;-33.830;151.202;2022-09-12T07:47:09;3.33;;;1.57;;
25667;SDS011;18003;-33.830;151.202;2022-09-12T07:49:41;5.92;;;1.80;;
25667;SDS011;18003;-33.830;151.202;2022-09-12T07:52:11;6.50;;;1.60;;
25667;SDS011;18003;-33.830;151.202;2022-09-12T07:54:41;7.15;;;1.80;;
25667;SDS011;18003;-33.830;151.202;2022-09-12T07:57:10;5.40;;;1.67;;
25667;SDS011;18003;-33.830;151.202;2022-09-12T07:59:41;6.80;;;1.67;;
25667;SDS011;18003;-33.830;151.202;2022-09-12T08:02:11;1.87;;;1.37;;
25667;SDS011;18003;-33.830;151.202;2022-09-12T08:04:41;1.87;;;1.42;;
25667;SDS011;18003;-33.830;151.202;2022-09-12T08:07:11;2.60;;;1.72;;
25667;SDS011;18003;-33.830;151.202;2022-09-12T08:09:41;3.72;;;1.75;;
25667;SDS011;18003;-33.830;151.202;2022-09-12T08:12:11;2.55;;;1.60;;
25667;SDS011;18003;-33.830;151.202;2022-09-12T08:14:43;3.02;;;1.62;;
25667;SDS011;18003;-33.830;151.202;2022-09-12T08:17:14;2.62;;;1.70;;
25667;SDS011;18003;-33.830;151.202;2022-09-12T08:19:44;2.92;;;1.40;;
25667;SDS011;18003;-33.830;151.202;2022-09-12T08:22:14;3.02;;;1.70;;
25667;SDS011;18003;-33.830;151.202;2022-09-12T08:24:44;4.95;;;1.67;;
25667;SDS011;18003;-33.830;151.202;2022-09-12T08:27:15;2.00;;;1.70;;
25667;SDS011;18003;-33.830;151.202;2022-09-12T08:29:45;1.70;;;1.60;;
25667;SDS011;18003;-33.830;151.202;2022-09-12T08:32:15;2.10;;;1.60;;
25667;SDS011;18003;-33.830;151.202;2022-09-12T08:34:45;2.50;;;1.80;;
25667;SDS011;18003;-33.830;151.202;2022-09-12T08:37:15;2.35;;;1.77;;
25667;SDS011;18003;-33.830;151.202;2022-09-12T08:39:45;3.12;;;1.80;;
25667;SDS011;18003;-33.830;151.202;2022-09-12T08:42:21;2.95;;;2.00;;
25667;SDS011;18003;-33.830;151.202;2022-09-12T08:44:55;2.75;;;2.10;;
25667;SDS011;18003;-33.830;151.202;2022-09-12T08:47:34;2.87;;;2.02;;
25667;SDS011;18003;-33.830;151.202;2022-09-12T08:55:31;3.47;;;2.00;;
25667;SDS011;18003;-33.830;151.202;2022-09-12T08:58:12;2.35;;;1.60;;
25667;SDS011;18003;-33.830;151.202;2022-09-12T09:00:48;3.27;;;2.08;;
25667;SDS011;18003;-33.830;151.202;2022-09-12T09:12:32;2.37;;;1.65;;
25667;SDS011;18003;-33.830;151.202;2022-09-12T09:15:12;3.90;;;2.20;;
25667;SDS011;18003;-33.830;151.202;2022-09-12T09:17:54;3.87;;;2.15;;
25667;SDS011;18003;-33.830;151.202;2022-09-12T09:25:58;14.23;;;3.10;;
25667;SDS011;18003;-33.830;151.202;2022-09-12T09:28:42;6.47;;;2.33;;
25667;SDS011;18003;-33.830;151.202;2022-09-12T09:31:20;4.35;;;1.98;;
25667;SDS011;18003;-33.830;151.202;2022-09-12T09:39:04;5.85;;;1.90;;
25667;SDS011;18003;-33.830;151.202;2022-09-12T09:41:48;5.30;;;1.90;;
25667;SDS011;18003;-33.830;151.202;2022-09-12T09:44:19;5.37;;;2.40;;
25667;SDS011;18003;-33.830;151.202;2022-09-12T09:46:50;4.42;;;2.25;;
25667;SDS011;18003;-33.830;151.202;2022-09-12T09:49:21;4.28;;;2.37;;
25667;SDS011;18003;-33.830;151.202;2022-09-12T09:51:52;5.12;;;2.50;;
25667;SDS011;18003;-33.830;151.202;2022-09-12T09:54:24;3.40;;;2.22;;
25667;SDS011;18003;-33.830;151.202;2022-09-12T09:57:50;3.20;;;2.37;;
25667;SDS011;18003;-33.830;151.202;2022-09-12T09:59:53;3.10;;;2.40;;
25667;SDS011;18003;-33.830;151.202;2022-09-12T10:02:23;4.35;;;2.70;;
25667;SDS011;18003;-33.830;151.202;2022-09-12T10:04:58;4.65;;;2.65;;
25667;SDS011;18003;-33.830;151.202;2022-09-12T10:07:25;3.15;;;2.42;;
25667;SDS011;18003;-33.830;151.202;2022-09-12T10:12:47;5.25;;;2.85;;
25667;SDS011;18003;-33.830;151.202;2022-09-12T10:15:21;7.37;;;3.58;;
25667;SDS011;18003;-33.830;151.202;2022-09-12T10:17:54;4.55;;;4.08;;
25667;SDS011;18003;-33.830;151.202;2022-09-12T10:25:53;4.90;;;4.40;;
25667;SDS011;18003;-33.830;151.202;2022-09-12T10:28:35;6.50;;;5.10;;
25667;SDS011;18003;-33.830;151.202;2022-09-12T10:31:03;5.50;;;3.98;;
25667;SDS011;18003;-33.830;151.202;2022-09-12T10:33:46;3.92;;;3.60;;
25667;SDS011;18003;-33.830;151.202;2022-09-12T10:36:18;5.22;;;3.60;;
25667;SDS011;18003;-33.830;151.202;2022-09-12T10:38:55;5.08;;;3.55;;
25667;SDS011;18003;-33.830;151.202;2022-09-12T10:41:26;5.87;;;3.35;;
25667;SDS011;18003;-33.830;151.202;2022-09-12T10:44:07;5.55;;;3.75;;
25667;SDS011;18003;-33.830;151.202;2022-09-12T10:46:43;4.08;;;3.27;;
25667;SDS011;18003;-33.830;151.202;2022-09-12T10:49:18;3.77;;;3.30;;
25667;SDS011;18003;-33.830;151.202;2022-09-12T10:51:57;5.75;;;3.22;;
25667;SDS011;18003;-33.830;151.202;2022-09-12T11:02:27;3.70;;;3.02;;
25667;SDS011;18003;-33.830;151.202;2022-09-12T11:10:25;8.25;;;3.62;;
25667;SDS011;18003;-33.830;151.202;2022-09-12T11:30:11;5.87;;;3.80;;
25667;SDS011;18003;-33.830;151.202;2022-09-12T11:35:25;4.20;;;3.85;;
25667;SDS011;18003;-33.830;151.202;2022-09-12T11:46:16;5.25;;;3.62;;
25667;SDS011;18003;-33.830;151.202;2022-09-12T11:56:35;5.08;;;3.00;;
25667;SDS011;18003;-33.830;151.202;2022-09-12T12:01:42;3.45;;;2.60;;
25667;SDS011;18003;-33.830;151.202;2022-09-12T12:04:15;3.45;;;2.50;;
25667;SDS011;18003;-33.830;151.202;2022-09-12T12:09:18;2.92;;;2.42;;
25667;SDS011;18003;-33.830;151.202;2022-09-12T12:11:49;2.92;;;2.70;;
25667;SDS011;18003;-33.830;151.202;2022-09-12T12:17:11;3.27;;;2.60;;
25667;SDS011;18003;-33.830;151.202;2022-09-12T12:19:42;3.87;;;2.83;;
25667;SDS011;18003;-33.830;151.202;2022-09-12T12:22:15;3.35;;;2.40;;
25667;SDS011;18003;-33.830;151.202;2022-09-12T12:35:43;3.87;;;2.75;;
25667;SDS011;18003;-33.830;151.202;2022-09-12T12:38:28;4.08;;;2.92;;
25667;SDS011;18003;-33.830;151.202;2022-09-12T12:43:52;4.75;;;2.90;;
25667;SDS011;18003;-33.830;151.202;2022-09-12T12:46:23;5.37;;;2.83;;
25667;SDS011;18003;-33.830;151.202;2022-09-12T12:51:28;3.27;;;2.40;;
25667;SDS011;18003;-33.830;151.202;2022-09-12T12:54:25;3.08;;;2.75;;
25667;SDS011;18003;-33.830;151.202;2022-09-12T12:59:03;3.25;;;2.90;;
25667;SDS011;18003;-33.830;151.202;2022-09-12T13:06:55;2.85;;;2.60;;
25667;SDS011;18003;-33.830;151.202;2022-09-12T13:09:30;2.98;;;2.40;;
25667;SDS011;18003;-33.830;151.202;2022-09-12T13:12:01;3.10;;;2.40;;
25667;SDS011;18003;-33.830;151.202;2022-09-12T13:14:34;4.95;;;2.45;;
25667;SDS011;18003;-33.830;151.202;2022-09-12T13:17:05;2.37;;;2.10;;
25667;SDS011;18003;-33.830;151.202;2022-09-12T13:19:37;3.27;;;2.10;;
25667;SDS011;18003;-33.830;151.202;2022-09-12T13:22:08;2.50;;;2.20;;
25667;SDS011;18003;-33.830;151.202;2022-09-12T13:24:44;2.17;;;2.00;;
25667;SDS011;18003;-33.830;151.202;2022-09-12T13:27:22;2.33;;;2.00;;
25667;SDS011;18003;-33.830;151.202;2022-09-12T13:30:10;2.87;;;2.10;;
25667;SDS011;18003;-33.830;151.202;2022-09-12T13:32:36;4.10;;;2.00;;
25667;SDS011;18003;-33.830;151.202;2022-09-12T13:43:29;2.58;;;2.00;;
25667;SDS011;18003;-33.830;151.202;2022-09-12T13:48:24;2.40;;;1.80;;
25667;SDS011;18003;-33.830;151.202;2022-09-12T13:50:57;2.27;;;1.62;;
25667;SDS011;18003;-33.830;151.202;2022-09-12T13:53:39;2.65;;;1.65;;
25667;SDS011;18003;-33.830;151.202;2022-09-12T13:56:15;1.75;;;1.45;;
25667;SDS011;18003;-33.830;151.202;2022-09-12T13:58:52;2.02;;;1.70;;
25667;SDS011;18003;-33.830;151.202;2022-09-12T14:01:24;2.83;;;1.60;;
25667;SDS011;18003;-33.830;151.202;2022-09-12T14:07:09;3.70;;;1.60;;
25667;SDS011;18003;-33.830;151.202;2022-09-12T14:12:22;2.25;;;1.70;;
25667;SDS011;18003;-33.830;151.202;2022-09-12T14:17:26;2.92;;;1.90;;
25667;SDS011;18003;-33.830;151.202;2022-09-12T14:20:10;2.77;;;1.80;;
25667;SDS011;18003;-33.830;151.202;2022-09-12T14:22:36;3.22;;;1.77;;
25667;SDS011;18003;-33.830;151.202;2022-09-12T14:25:09;2.17;;;1.60;;
25667;SDS011;18003;-33.830;151.202;2022-09-12T14:27:51;1.70;;;1.60;;
25667;SDS011;18003;-33.830;151.202;2022-09-12T14:30:29;3.77;;;1.70;;
25667;SDS011;18003;-33.830;151.202;2022-09-12T14:35:51;3.87;;;1.90;;
25667;SDS011;18003;-33.830;151.202;2022-09-12T14:38:23;3.05;;;1.85;;
25667;SDS011;18003;-33.830;151.202;2022-09-12T14:43:29;1.80;;;1.60;;
25667;SDS011;18003;-33.830;151.202;2022-09-12T14:46:06;2.37;;;1.85;;
25667;SDS011;18003;-33.830;151.202;2022-09-12T14:48:59;2.90;;;2.10;;
25667;SDS011;18003;-33.830;151.202;2022-09-12T14:51:34;3.85;;;2.10;;
25667;SDS011;18003;-33.830;151.202;2022-09-12T14:54:04;3.20;;;2.30;;
25667;SDS011;18003;-33.830;151.202;2022-09-12T14:56:38;2.90;;;2.10;;
25667;SDS011;18003;-33.830;151.202;2022-09-12T15:04:45;3.25;;;1.90;;
25667;SDS011;18003;-33.830;151.202;2022-09-12T15:07:34;2.33;;;1.70;;
25667;SDS011;18003;-33.830;151.202;2022-09-12T15:15:41;1.87;;;1.60;;
25667;SDS011;18003;-33.830;151.202;2022-09-12T15:20:42;1.92;;;1.50;;
25667;SDS011;18003;-33.830;151.202;2022-09-12T15:23:17;1.75;;;1.60;;
25667;SDS011;18003;-33.830;151.202;2022-09-12T15:25:48;2.72;;;1.70;;
25667;SDS011;18003;-33.830;151.202;2022-09-12T15:28:19;4.00;;;1.70;;
25667;SDS011;18003;-33.830;151.202;2022-09-12T15:30:50;3.42;;;1.60;;
25667;SDS011;18003;-33.830;151.202;2022-09-12T15:33:22;2.58;;;1.70;;
25667;SDS011;18003;-33.830;151.202;2022-09-12T15:35:52;3.30;;;1.73;;
25667;SDS011;18003;-33.830;151.202;2022-09-12T15:38:22;1.70;;;1.60;;
25667;SDS011;18003;-33.830;151.202;2022-09-12T15:40:52;2.22;;;1.60;;
25667;SDS011;18003;-33.830;151.202;2022-09-12T15:43:23;2.40;;;1.72;;
25667;SDS011;18003;-33.830;151.202;2022-09-12T15:45:53;2.62;;;1.52;;
25667;SDS011;18003;-33.830;151.202;2022-09-12T15:48:24;2.10;;;1.70;;
25667;SDS011;18003;-33.830;151.202;2022-09-12T15:50:54;2.25;;;1.62;;
25667;SDS011;18003;-33.830;151.202;2022-09-12T15:53:25;1.72;;;1.55;;
25667;SDS011;18003;-33.830;151.202;2022-09-12T15:55:55;2.37;;;1.45;;
25667;SDS011;18003;-33.830;151.202;2022-09-12T15:58:25;2.35;;;1.50;;
25667;SDS011;18003;-33.830;151.202;2022-09-12T16:00:55;1.65;;;1.40;;
25667;SDS011;18003;-33.830;151.202;2022-09-12T16:03:26;2.47;;;1.55;;
25667;SDS011;18003;-33.830;151.202;2022-09-12T16:05:58;1.62;;;1.50;;
25667;SDS011;18003;-33.830;151.202;2022-09-12T16:08:29;1.72;;;1.42;;
25667;SDS011;18003;-33.830;151.202;2022-09-12T16:11:03;1.50;;;1.40;;
25667;SDS011;18003;-33.830;151.202;2022-09-12T16:13:38;2.12;;;1.50;;
25667;SDS011;18003;-33.830;151.202;2022-09-12T16:16:08;1.77;;;1.37;;
25667;SDS011;18003;-33.830;151.202;2022-09-12T16:18:41;3.05;;;1.50;;
25667;SDS011;18003;-33.830;151.202;2022-09-12T16:21:11;3.45;;;1.50;;
25667;SDS011;18003;-33.830;151.202;2022-09-12T16:23:44;2.67;;;1.50;;
25667;SDS011;18003;-33.830;151.202;2022-09-12T16:26:14;2.75;;;1.42;;
25667;SDS011;18003;-33.830;151.202;2022-09-12T16:28:44;2.67;;;1.40;;
25667;SDS011;18003;-33.830;151.202;2022-09-12T16:31:14;2.02;;;1.42;;
25667;SDS011;18003;-33.830;151.202;2022-09-12T16:33:44;3.77;;;1.40;;
25667;SDS011;18003;-33.830;151.202;2022-09-12T16:36:15;1.77;;;1.20;;
25667;SDS011;18003;-33.830;151.202;2022-09-12T16:41:16;3.62;;;1.50;;
25667;SDS011;18003;-33.830;151.202;2022-09-12T16:43:47;5.50;;;1.25;;
25667;SDS011;18003;-33.830;151.202;2022-09-12T16:46:22;1.35;;;1.12;;
25667;SDS011;18003;-33.830;151.202;2022-09-12T16:48:49;2.95;;;1.10;;
25667;SDS011;18003;-33.830;151.202;2022-09-12T16:51:21;2.95;;;1.20;;
25667;SDS011;18003;-33.830;151.202;2022-09-12T16:53:52;3.05;;;1.27;;
25667;SDS011;18003;-33.830;151.202;2022-09-12T16:56:23;2.25;;;1.20;;
25667;SDS011;18003;-33.830;151.202;2022-09-12T16:58:53;3.37;;;1.25;;
25667;SDS011;18003;-33.830;151.202;2022-09-12T17:01:23;2.65;;;1.22;;
25667;SDS011;18003;-33.830;151.202;2022-09-12T17:03:54;3.42;;;1.30;;
25667;SDS011;18003;-33.830;151.202;2022-09-12T17:06:25;3.50;;;1.40;;
25667;SDS011;18003;-33.830;151.202;2022-09-12T17:08:57;1.30;;;1.20;;
25667;SDS011;18003;-33.830;151.202;2022-09-12T17:11:32;3.35;;;1.30;;
25667;SDS011;18003;-33.830;151.202;2022-09-12T17:14:04;2.22;;;1.30;;
25667;SDS011;18003;-33.830;151.202;2022-09-12T17:16:39;2.80;;;1.27;;
25667;SDS011;18003;-33.830;151.202;2022-09-12T17:19:16;4.28;;;1.35;;
25667;SDS011;18003;-33.830;151.202;2022-09-12T17:24:12;2.75;;;1.57;;
25667;SDS011;18003;-33.830;151.202;2022-09-12T17:26:42;3.83;;;1.52;;
25667;SDS011;18003;-33.830;151.202;2022-09-12T17:29:12;5.15;;;1.75;;
25667;SDS011;18003;-33.830;151.202;2022-09-12T17:31:43;4.00;;;1.42;;
25667;SDS011;18003;-33.830;151.202;2022-09-12T17:34:13;3.67;;;1.20;;
25667;SDS011;18003;-33.830;151.202;2022-09-12T17:36:44;3.50;;;1.32;;
25667;SDS011;18003;-33.830;151.202;2022-09-12T17:39:14;2.42;;;1.47;;
25667;SDS011;18003;-33.830;151.202;2022-09-12T17:41:44;3.62;;;1.47;;
25667;SDS011;18003;-33.830;151.202;2022-09-12T17:44:15;2.80;;;1.22;;
25667;SDS011;18003;-33.830;151.202;2022-09-12T17:46:45;5.33;;;1.65;;
25667;SDS011;18003;-33.830;151.202;2022-09-12T17:49:16;5.72;;;1.60;;
25667;SDS011;18003;-33.830;151.202;2022-09-12T17:51:47;5.35;;;1.95;;
25667;SDS011;18003;-33.830;151.202;2022-09-12T17:54:18;3.30;;;1.32;;
25667;SDS011;18003;-33.830;151.202;2022-09-12T17:56:48;3.72;;;1.42;;
25667;SDS011;18003;-33.830;151.202;2022-09-12T17:59:18;3.05;;;1.35;;
25667;SDS011;18003;-33.830;151.202;2022-09-12T18:01:50;3.90;;;1.40;;
25667;SDS011;18003;-33.830;151.202;2022-09-12T18:04:37;3.27;;;1.30;;
25667;SDS011;18003;-33.830;151.202;2022-09-12T18:07:07;3.20;;;1.37;;